sensor_id;sensor_type;location;lat;lon;timestamp;P1;durP1;ratioP1;P2;durP2;ratioP2
72388;SDS011;60566;48.062;9.930;2023-04-25T00:00:43;7.22;;;3.88;;
72388;SDS011;60566;48.062;9.930;2023-04-25T00:03:08;8.07;;;3.88;;
72388;SDS011;60566;48.062;9.930;2023-04-25T00:05:33;7.88;;;3.85;;
72388;SDS011;60566;48.062;9.930;2023-04-25T00:07:59;8.48;;;3.90;;
72388;SDS011;60566;48.062;9.930;2023-04-25T00:10:24;10.60;;;3.58;;
72388;SDS011;60566;48.062;9.930;2023-04-25T00:12:49;9.55;;;4.00;;
72388;SDS011;60566;48.062;9.930;2023-04-25T00:15:16;11.27;;;4.32;;
72388;SDS011;60566;48.062;9.930;2023-04-25T00:17:41;9.35;;;4.50;;
72388;SDS011;60566;48.062;9.930;2023-04-25T00:20:07;6.32;;;3.47;;
72388;SDS011;60566;48.062;9.930;2023-04-25T00:22:33;7.00;;;4.43;;
72388;SDS011;60566;48.062;9.930;2023-04-25T00:24:59;10.35;;;4.80;;
72388;SDS011;60566;48.062;9.930;2023-04-25T00:27:24;7.43;;;4.13;;
72388;SDS011;60566;48.062;9.930;2023-04-25T00:29:50;8.90;;;4.25;;
72388;SDS011;60566;48.062;9.930;2023-04-25T00:32:16;8.40;;;3.78;;
72388;SDS011;60566;48.062;9.930;2023-04-25T00:34:42;7.00;;;4.00;;
72388;SDS011;60566;48.062;9.930;2023-04-25T00:37:07;9.88;;;4.00;;
72388;SDS011;60566;48.062;9.930;2023-04-25T00:39:33;7.30;;;3.92;;
72388;SDS011;60566;48.062;9.930;2023-04-25T00:41:58;8.15;;;3.63;;
72388;SDS011;60566;48.062;9.930;2023-04-25T00:44:24;7.20;;;3.72;;
72388;SDS011;60566;48.062;9.930;2023-04-25T00:46:49;9.90;;;3.70;;
72388;SDS011;60566;48.062;9.930;2023-04-25T00:49:16;6.18;;;4.03;;
72388;SDS011;60566;48.062;9.930;2023-04-25T00:51:42;12.23;;;4.05;;
72388;SDS011;60566;48.062;9.930;2023-04-25T00:54:08;8.73;;;3.92;;
72388;SDS011;60566;48.062;9.930;2023-04-25T00:56:33;8.55;;;3.85;;
72388;SDS011;60566;48.062;9.930;2023-04-25T00:58:58;7.93;;;4.07;;
72388;SDS011;60566;48.062;9.930;2023-04-25T01:01:24;7.65;;;4.13;;
72388;SDS011;60566;48.062;9.930;2023-04-25T01:03:49;10.32;;;4.35;;
72388;SDS011;60566;48.062;9.930;2023-04-25T01:06:16;7.22;;;3.50;;
72388;SDS011;60566;48.062;9.930;2023-04-25T01:08:42;7.30;;;3.45;;
72388;SDS011;60566;48.062;9.930;2023-04-25T01:11:07;7.28;;;2.65;;
72388;SDS011;60566;48.062;9.930;2023-04-25T01:13:33;7.35;;;3.00;;
72388;SDS011;60566;48.062;9.930;2023-04-25T01:15:59;5.55;;;2.83;;
72388;SDS011;60566;48.062;9.930;2023-04-25T01:18:25;8.93;;;3.00;;
72388;SDS011;60566;48.062;9.930;2023-04-25T01:20:51;8.15;;;2.35;;
72388;SDS011;60566;48.062;9.930;2023-04-25T01:23:18;8.63;;;2.88;;
72388;SDS011;60566;48.062;9.930;2023-04-25T01:25:43;5.30;;;2.28;;
72388;SDS011;60566;48.062;9.930;2023-04-25T01:28:09;5.18;;;2.45;;
72388;SDS011;60566;48.062;9.930;2023-04-25T01:30:35;6.22;;;2.60;;
72388;SDS011;60566;48.062;9.930;2023-04-25T01:33:00;5.35;;;2.33;;
72388;SDS011;60566;48.062;9.930;2023-04-25T01:35:26;4.82;;;2.15;;
72388;SDS011;60566;48.062;9.930;2023-04-25T01:37:51;6.50;;;2.20;;
72388;SDS011;60566;48.062;9.930;2023-04-25T01:40:18;5.15;;;3.00;;
72388;SDS011;60566;48.062;9.930;2023-04-25T01:42:45;7.60;;;2.88;;
72388;SDS011;60566;48.062;9.930;2023-04-25T01:45:11;4.82;;;2.45;;
72388;SDS011;60566;48.062;9.930;2023-04-25T01:47:36;6.45;;;2.50;;
72388;SDS011;60566;48.062;9.930;2023-04-25T01:50:02;6.43;;;2.40;;
72388;SDS011;60566;48.062;9.930;2023-04-25T01:52:29;6.57;;;2.25;;
72388;SDS011;60566;48.062;9.930;2023-04-25T01:54:54;6.18;;;2.45;;
72388;SDS011;60566;48.062;9.930;2023-04-25T01:57:22;5.60;;;1.95;;
72388;SDS011;60566;48.062;9.930;2023-04-25T01:59:47;5.43;;;2.60;;
72388;SDS011;60566;48.062;9.930;2023-04-25T02:02:12;5.28;;;2.45;;
72388;SDS011;60566;48.062;9.930;2023-04-25T02:04:38;5.22;;;2.38;;
72388;SDS011;60566;48.062;9.930;2023-04-25T02:07:03;6.75;;;2.55;;
72388;SDS011;60566;48.062;9.930;2023-04-25T02:09:29;5.00;;;2.42;;
72388;SDS011;60566;48.062;9.930;2023-04-25T02:11:54;7.32;;;3.22;;
72388;SDS011;60566;48.062;9.930;2023-04-25T02:14:21;6.75;;;2.97;;
72388;SDS011;60566;48.062;9.930;2023-04-25T02:16:46;8.02;;;2.97;;
72388;SDS011;60566;48.062;9.930;2023-04-25T02:19:11;7.75;;;2.83;;
72388;SDS011;60566;48.062;9.930;2023-04-25T02:21:37;6.03;;;2.50;;
72388;SDS011;60566;48.062;9.930;2023-04-25T02:24:03;7.38;;;2.58;;
72388;SDS011;60566;48.062;9.930;2023-04-25T02:26:28;5.00;;;2.80;;
72388;SDS011;60566;48.062;9.930;2023-04-25T02:28:54;6.68;;;2.90;;
72388;SDS011;60566;48.062;9.930;2023-04-25T02:31:21;5.50;;;2.67;;
72388;SDS011;60566;48.062;9.930;2023-04-25T02:33:47;7.53;;;3.47;;
72388;SDS011;60566;48.062;9.930;2023-04-25T02:36:12;8.88;;;2.75;;
72388;SDS011;60566;48.062;9.930;2023-04-25T02:38:38;6.28;;;2.63;;
72388;SDS011;60566;48.062;9.930;2023-04-25T02:41:03;5.22;;;2.53;;
72388;SDS011;60566;48.062;9.930;2023-04-25T02:43:29;4.72;;;2.58;;
72388;SDS011;60566;48.062;9.930;2023-04-25T02:45:54;6.28;;;2.60;;
72388;SDS011;60566;48.062;9.930;2023-04-25T02:48:21;6.95;;;2.80;;
72388;SDS011;60566;48.062;9.930;2023-04-25T02:50:46;6.50;;;2.97;;
72388;SDS011;60566;48.062;9.930;2023-04-25T02:53:11;7.10;;;2.70;;
72388;SDS011;60566;48.062;9.930;2023-04-25T02:55:37;8.82;;;3.22;;
72388;SDS011;60566;48.062;9.930;2023-04-25T02:58:02;6.00;;;2.42;;
72388;SDS011;60566;48.062;9.930;2023-04-25T03:00:28;5.82;;;2.83;;
72388;SDS011;60566;48.062;9.930;2023-04-25T03:02:53;10.70;;;3.40;;
72388;SDS011;60566;48.062;9.930;2023-04-25T03:05:20;7.80;;;2.67;;
72388;SDS011;60566;48.062;9.930;2023-04-25T03:07:45;6.45;;;2.72;;
72388;SDS011;60566;48.062;9.930;2023-04-25T03:10:11;7.13;;;3.17;;
72388;SDS011;60566;48.062;9.930;2023-04-25T03:12:36;6.82;;;2.70;;
72388;SDS011;60566;48.062;9.930;2023-04-25T03:15:02;6.65;;;3.15;;
72388;SDS011;60566;48.062;9.930;2023-04-25T03:17:28;4.50;;;2.30;;
72388;SDS011;60566;48.062;9.930;2023-04-25T03:19:53;6.47;;;2.63;;
72388;SDS011;60566;48.062;9.930;2023-04-25T03:22:20;6.63;;;3.05;;
72388;SDS011;60566;48.062;9.930;2023-04-25T03:24:46;6.65;;;2.55;;
72388;SDS011;60566;48.062;9.930;2023-04-25T03:27:11;7.30;;;2.90;;
72388;SDS011;60566;48.062;9.930;2023-04-25T03:29:37;5.43;;;2.88;;
72388;SDS011;60566;48.062;9.930;2023-04-25T03:32:02;7.32;;;2.80;;
72388;SDS011;60566;48.062;9.930;2023-04-25T03:34:27;7.32;;;2.70;;
72388;SDS011;60566;48.062;9.930;2023-04-25T03:36:53;10.35;;;2.97;;
72388;SDS011;60566;48.062;9.930;2023-04-25T03:39:20;5.97;;;2.67;;
72388;SDS011;60566;48.062;9.930;2023-04-25T03:41:45;7.93;;;2.80;;
72388;SDS011;60566;48.062;9.930;2023-04-25T03:44:10;5.70;;;2.95;;
72388;SDS011;60566;48.062;9.930;2023-04-25T03:46:36;4.85;;;2.80;;
72388;SDS011;60566;48.062;9.930;2023-04-25T03:49:01;6.63;;;3.42;;
72388;SDS011;60566;48.062;9.930;2023-04-25T03:51:27;6.13;;;3.05;;
72388;SDS011;60566;48.062;9.930;2023-04-25T03:53:52;6.50;;;3.22;;
72388;SDS011;60566;48.062;9.930;2023-04-25T03:56:19;6.53;;;3.20;;
72388;SDS011;60566;48.062;9.930;2023-04-25T03:58:44;6.63;;;3.10;;
72388;SDS011;60566;48.062;9.930;2023-04-25T04:01:10;9.15;;;3.05;;
72388;SDS011;60566;48.062;9.930;2023-04-25T04:03:35;5.05;;;2.67;;
72388;SDS011;60566;48.062;9.930;2023-04-25T04:06:01;5.88;;;2.67;;
72388;SDS011;60566;48.062;9.930;2023-04-25T04:08:27;8.85;;;2.85;;
72388;SDS011;60566;48.062;9.930;2023-04-25T04:10:52;5.05;;;3.00;;
72388;SDS011;60566;48.062;9.930;2023-04-25T04:13:19;7.50;;;3.05;;
72388;SDS011;60566;48.062;9.930;2023-04-25T04:15:44;5.80;;;2.65;;
72388;SDS011;60566;48.062;9.930;2023-04-25T04:18:09;6.70;;;2.78;;
72388;SDS011;60566;48.062;9.930;2023-04-25T04:20:35;6.18;;;3.10;;
72388;SDS011;60566;48.062;9.930;2023-04-25T04:23:01;7.95;;;2.67;;
72388;SDS011;60566;48.062;9.930;2023-04-25T04:25:26;4.78;;;2.75;;
72388;SDS011;60566;48.062;9.930;2023-04-25T04:27:51;8.43;;;2.42;;
72388;SDS011;60566;48.062;9.930;2023-04-25T04:30:18;5.80;;;2.70;;
72388;SDS011;60566;48.062;9.930;2023-04-25T04:32:43;8.18;;;2.72;;
72388;SDS011;60566;48.062;9.930;2023-04-25T04:35:09;8.15;;;2.97;;
72388;SDS011;60566;48.062;9.930;2023-04-25T04:37:34;7.97;;;2.60;;
72388;SDS011;60566;48.062;9.930;2023-04-25T04:40:00;4.95;;;2.67;;
72388;SDS011;60566;48.062;9.930;2023-04-25T04:42:28;7.03;;;2.40;;
72388;SDS011;60566;48.062;9.930;2023-04-25T04:44:55;7.30;;;2.95;;
72388;SDS011;60566;48.062;9.930;2023-04-25T04:47:22;8.82;;;3.15;;
72388;SDS011;60566;48.062;9.930;2023-04-25T04:49:50;8.27;;;2.88;;
72388;SDS011;60566;48.062;9.930;2023-04-25T04:52:16;7.45;;;3.08;;
72388;SDS011;60566;48.062;9.930;2023-04-25T04:54:41;6.45;;;2.70;;
72388;SDS011;60566;48.062;9.930;2023-04-25T04:57:06;6.75;;;2.72;;
72388;SDS011;60566;48.062;9.930;2023-04-25T04:59:32;6.18;;;3.00;;
72388;SDS011;60566;48.062;9.930;2023-04-25T05:01:57;5.40;;;3.08;;
72388;SDS011;60566;48.062;9.930;2023-04-25T05:04:24;5.45;;;3.03;;
72388;SDS011;60566;48.062;9.930;2023-04-25T05:06:49;8.35;;;3.08;;
72388;SDS011;60566;48.062;9.930;2023-04-25T05:09:15;6.55;;;3.20;;
72388;SDS011;60566;48.062;9.930;2023-04-25T05:11:40;11.13;;;3.45;;
72388;SDS011;60566;48.062;9.930;2023-04-25T05:14:06;6.55;;;3.25;;
72388;SDS011;60566;48.062;9.930;2023-04-25T05:16:31;6.85;;;3.08;;
72388;SDS011;60566;48.062;9.930;2023-04-25T05:18:56;8.63;;;3.70;;
72388;SDS011;60566;48.062;9.930;2023-04-25T05:21:23;8.23;;;3.08;;
72388;SDS011;60566;48.062;9.930;2023-04-25T05:23:48;8.85;;;3.13;;
72388;SDS011;60566;48.062;9.930;2023-04-25T05:26:14;10.82;;;3.70;;
72388;SDS011;60566;48.062;9.930;2023-04-25T05:28:39;7.90;;;3.78;;
72388;SDS011;60566;48.062;9.930;2023-04-25T05:31:05;9.75;;;3.60;;
72388;SDS011;60566;48.062;9.930;2023-04-25T05:33:30;8.05;;;3.40;;
72388;SDS011;60566;48.062;9.930;2023-04-25T05:35:59;6.50;;;3.75;;
72388;SDS011;60566;48.062;9.930;2023-04-25T05:38:25;8.15;;;3.80;;
72388;SDS011;60566;48.062;9.930;2023-04-25T05:40:51;6.30;;;3.95;;
72388;SDS011;60566;48.062;9.930;2023-04-25T05:43:16;7.35;;;3.65;;
72388;SDS011;60566;48.062;9.930;2023-04-25T05:45:42;11.68;;;4.20;;
72388;SDS011;60566;48.062;9.930;2023-04-25T05:48:07;7.38;;;3.67;;
72388;SDS011;60566;48.062;9.930;2023-04-25T05:50:36;11.80;;;3.63;;
72388;SDS011;60566;48.062;9.930;2023-04-25T05:53:02;9.27;;;3.97;;
72388;SDS011;60566;48.062;9.930;2023-04-25T05:55:32;9.65;;;4.10;;
72388;SDS011;60566;48.062;9.930;2023-04-25T05:57:57;10.55;;;4.07;;
72388;SDS011;60566;48.062;9.930;2023-04-25T06:00:23;10.07;;;3.53;;
72388;SDS011;60566;48.062;9.930;2023-04-25T06:02:48;7.70;;;3.97;;
72388;SDS011;60566;48.062;9.930;2023-04-25T06:05:14;10.65;;;3.80;;
72388;SDS011;60566;48.062;9.930;2023-04-25T06:07:39;6.20;;;3.75;;
72388;SDS011;60566;48.062;9.930;2023-04-25T06:10:13;9.30;;;4.93;;
72388;SDS011;60566;48.062;9.930;2023-04-25T06:12:40;9.50;;;3.67;;
72388;SDS011;60566;48.062;9.930;2023-04-25T06:15:06;9.48;;;4.28;;
72388;SDS011;60566;48.062;9.930;2023-04-25T06:17:32;8.95;;;3.80;;
72388;SDS011;60566;48.062;9.930;2023-04-25T06:19:58;10.13;;;3.75;;
72388;SDS011;60566;48.062;9.930;2023-04-25T06:22:23;8.65;;;3.40;;
72388;SDS011;60566;48.062;9.930;2023-04-25T06:24:49;8.02;;;3.38;;
72388;SDS011;60566;48.062;9.930;2023-04-25T06:27:14;7.15;;;3.42;;
72388;SDS011;60566;48.062;9.930;2023-04-25T06:29:41;11.63;;;3.60;;
72388;SDS011;60566;48.062;9.930;2023-04-25T06:32:07;7.10;;;3.55;;
72388;SDS011;60566;48.062;9.930;2023-04-25T06:34:32;7.60;;;3.78;;
72388;SDS011;60566;48.062;9.930;2023-04-25T06:36:57;8.15;;;3.58;;
72388;SDS011;60566;48.062;9.930;2023-04-25T06:39:23;9.85;;;3.95;;
72388;SDS011;60566;48.062;9.930;2023-04-25T06:41:48;6.40;;;3.30;;
72388;SDS011;60566;48.062;9.930;2023-04-25T06:44:13;10.43;;;3.88;;
72388;SDS011;60566;48.062;9.930;2023-04-25T06:46:40;9.80;;;3.92;;
72388;SDS011;60566;48.062;9.930;2023-04-25T06:49:06;10.25;;;3.50;;
72388;SDS011;60566;48.062;9.930;2023-04-25T06:51:31;9.00;;;3.92;;
72388;SDS011;60566;48.062;9.930;2023-04-25T06:53:56;8.93;;;3.97;;
72388;SDS011;60566;48.062;9.930;2023-04-25T06:56:22;11.68;;;3.95;;
72388;SDS011;60566;48.062;9.930;2023-04-25T06:58:47;6.78;;;3.42;;
72388;SDS011;60566;48.062;9.930;2023-04-25T07:01:13;5.95;;;3.20;;
72388;SDS011;60566;48.062;9.930;2023-04-25T07:03:39;9.65;;;2.97;;
72388;SDS011;60566;48.062;9.930;2023-04-25T07:06:05;6.63;;;2.97;;
72388;SDS011;60566;48.062;9.930;2023-04-25T07:08:31;8.35;;;4.05;;
72388;SDS011;60566;48.062;9.930;2023-04-25T07:10:56;6.93;;;3.17;;
72388;SDS011;60566;48.062;9.930;2023-04-25T07:13:24;6.88;;;3.17;;
72388;SDS011;60566;48.062;9.930;2023-04-25T07:15:49;5.10;;;2.78;;
72388;SDS011;60566;48.062;9.930;2023-04-25T07:18:18;6.10;;;2.75;;
72388;SDS011;60566;48.062;9.930;2023-04-25T07:20:45;7.80;;;2.65;;
72388;SDS011;60566;48.062;9.930;2023-04-25T07:23:10;5.22;;;2.53;;
72388;SDS011;60566;48.062;9.930;2023-04-25T07:25:35;7.22;;;3.10;;
72388;SDS011;60566;48.062;9.930;2023-04-25T07:28:01;8.10;;;3.35;;
72388;SDS011;60566;48.062;9.930;2023-04-25T07:30:26;9.60;;;3.20;;
72388;SDS011;60566;48.062;9.930;2023-04-25T07:32:52;5.25;;;3.10;;
72388;SDS011;60566;48.062;9.930;2023-04-25T07:35:17;7.75;;;3.30;;
72388;SDS011;60566;48.062;9.930;2023-04-25T07:37:44;8.50;;;3.50;;
72388;SDS011;60566;48.062;9.930;2023-04-25T07:40:10;5.95;;;3.25;;
72388;SDS011;60566;48.062;9.930;2023-04-25T07:42:39;11.27;;;3.25;;
72388;SDS011;60566;48.062;9.930;2023-04-25T07:45:05;8.00;;;3.72;;
72388;SDS011;60566;48.062;9.930;2023-04-25T07:47:31;4.95;;;2.60;;
72388;SDS011;60566;48.062;9.930;2023-04-25T07:49:57;9.45;;;3.15;;
72388;SDS011;60566;48.062;9.930;2023-04-25T07:52:22;6.25;;;3.20;;
72388;SDS011;60566;48.062;9.930;2023-04-25T07:54:49;9.73;;;3.22;;
72388;SDS011;60566;48.062;9.930;2023-04-25T07:57:17;8.85;;;2.92;;
72388;SDS011;60566;48.062;9.930;2023-04-25T07:59:50;7.60;;;3.22;;
72388;SDS011;60566;48.062;9.930;2023-04-25T08:02:17;6.45;;;2.75;;
72388;SDS011;60566;48.062;9.930;2023-04-25T08:04:42;7.28;;;3.22;;
72388;SDS011;60566;48.062;9.930;2023-04-25T08:07:10;8.60;;;2.50;;
72388;SDS011;60566;48.062;9.930;2023-04-25T08:09:35;7.15;;;2.70;;
72388;SDS011;60566;48.062;9.930;2023-04-25T08:12:02;8.35;;;2.47;;
72388;SDS011;60566;48.062;9.930;2023-04-25T08:14:28;5.93;;;2.90;;
72388;SDS011;60566;48.062;9.930;2023-04-25T08:16:55;5.10;;;2.53;;
72388;SDS011;60566;48.062;9.930;2023-04-25T08:19:20;5.15;;;2.53;;
72388;SDS011;60566;48.062;9.930;2023-04-25T08:21:46;7.90;;;2.70;;
72388;SDS011;60566;48.062;9.930;2023-04-25T08:24:11;4.45;;;2.42;;
72388;SDS011;60566;48.062;9.930;2023-04-25T08:26:42;5.00;;;2.55;;
72388;SDS011;60566;48.062;9.930;2023-04-25T08:29:09;7.00;;;2.70;;
72388;SDS011;60566;48.062;9.930;2023-04-25T08:31:34;7.80;;;2.42;;
72388;SDS011;60566;48.062;9.930;2023-04-25T08:34:00;7.55;;;2.72;;
72388;SDS011;60566;48.062;9.930;2023-04-25T08:36:25;6.65;;;3.17;;
72388;SDS011;60566;48.062;9.930;2023-04-25T08:38:51;7.35;;;3.58;;
72388;SDS011;60566;48.062;9.930;2023-04-25T08:41:16;7.82;;;2.65;;
72388;SDS011;60566;48.062;9.930;2023-04-25T08:43:43;9.07;;;3.30;;
72388;SDS011;60566;48.062;9.930;2023-04-25T08:46:10;7.85;;;2.30;;
72388;SDS011;60566;48.062;9.930;2023-04-25T08:48:36;6.28;;;2.42;;
72388;SDS011;60566;48.062;9.930;2023-04-25T08:51:02;5.13;;;2.83;;
72388;SDS011;60566;48.062;9.930;2023-04-25T08:53:31;11.63;;;4.68;;
72388;SDS011;60566;48.062;9.930;2023-04-25T08:55:58;5.05;;;3.10;;
72388;SDS011;60566;48.062;9.930;2023-04-25T08:58:24;9.43;;;2.75;;
72388;SDS011;60566;48.062;9.930;2023-04-25T09:00:52;6.07;;;2.33;;
72388;SDS011;60566;48.062;9.930;2023-04-25T09:03:19;7.28;;;2.25;;
72388;SDS011;60566;48.062;9.930;2023-04-25T09:05:45;7.80;;;2.30;;
72388;SDS011;60566;48.062;9.930;2023-04-25T09:08:12;3.38;;;1.92;;
72388;SDS011;60566;48.062;9.930;2023-04-25T09:10:38;5.85;;;2.47;;
72388;SDS011;60566;48.062;9.930;2023-04-25T09:13:04;4.78;;;1.90;;
72388;SDS011;60566;48.062;9.930;2023-04-25T09:15:31;5.90;;;2.30;;
72388;SDS011;60566;48.062;9.930;2023-04-25T09:17:57;5.10;;;2.53;;
72388;SDS011;60566;48.062;9.930;2023-04-25T09:20:24;6.05;;;2.42;;
72388;SDS011;60566;48.062;9.930;2023-04-25T09:22:50;5.38;;;2.33;;
72388;SDS011;60566;48.062;9.930;2023-04-25T09:25:26;5.68;;;2.55;;
72388;SDS011;60566;48.062;9.930;2023-04-25T09:27:52;5.20;;;2.55;;
72388;SDS011;60566;48.062;9.930;2023-04-25T09:30:18;5.82;;;3.25;;
72388;SDS011;60566;48.062;9.930;2023-04-25T09:32:55;7.32;;;2.60;;
72388;SDS011;60566;48.062;9.930;2023-04-25T09:35:26;8.40;;;2.25;;
72388;SDS011;60566;48.062;9.930;2023-04-25T09:37:52;4.47;;;1.75;;
72388;SDS011;60566;48.062;9.930;2023-04-25T09:40:18;4.43;;;1.90;;
72388;SDS011;60566;48.062;9.930;2023-04-25T09:42:43;5.22;;;1.75;;
72388;SDS011;60566;48.062;9.930;2023-04-25T09:45:09;4.07;;;2.00;;
72388;SDS011;60566;48.062;9.930;2023-04-25T09:47:37;4.00;;;1.63;;
72388;SDS011;60566;48.062;9.930;2023-04-25T09:50:13;3.78;;;1.75;;
72388;SDS011;60566;48.062;9.930;2023-04-25T09:52:40;3.22;;;1.73;;
72388;SDS011;60566;48.062;9.930;2023-04-25T09:55:06;3.40;;;1.35;;
72388;SDS011;60566;48.062;9.930;2023-04-25T09:57:32;4.38;;;1.70;;
72388;SDS011;60566;48.062;9.930;2023-04-25T09:59:58;3.00;;;1.63;;
72388;SDS011;60566;48.062;9.930;2023-04-25T10:02:26;3.75;;;1.50;;
72388;SDS011;60566;48.062;9.930;2023-04-25T10:04:52;3.05;;;1.50;;
72388;SDS011;60566;48.062;9.930;2023-04-25T10:07:19;1.92;;;0.93;;
72388;SDS011;60566;48.062;9.930;2023-04-25T10:09:47;1.35;;;0.73;;
72388;SDS011;60566;48.062;9.930;2023-04-25T10:12:13;2.60;;;1.50;;
72388;SDS011;60566;48.062;9.930;2023-04-25T10:14:39;1.83;;;0.98;;
72388;SDS011;60566;48.062;9.930;2023-04-25T10:17:04;1.33;;;0.73;;
72388;SDS011;60566;48.062;9.930;2023-04-25T10:19:30;1.77;;;0.93;;
72388;SDS011;60566;48.062;9.930;2023-04-25T10:21:58;0.65;;;0.50;;
72388;SDS011;60566;48.062;9.930;2023-04-25T10:24:28;1.38;;;0.95;;
72388;SDS011;60566;48.062;9.930;2023-04-25T10:26:55;1.60;;;0.80;;
72388;SDS011;60566;48.062;9.930;2023-04-25T10:29:22;1.90;;;1.55;;
72388;SDS011;60566;48.062;9.930;2023-04-25T10:31:48;2.35;;;1.40;;
72388;SDS011;60566;48.062;9.930;2023-04-25T10:34:13;1.95;;;1.08;;
72388;SDS011;60566;48.062;9.930;2023-04-25T10:36:39;2.22;;;1.33;;
72388;SDS011;60566;48.062;9.930;2023-04-25T10:39:04;2.63;;;1.13;;
72388;SDS011;60566;48.062;9.930;2023-04-25T10:41:30;2.53;;;1.15;;
72388;SDS011;60566;48.062;9.930;2023-04-25T10:44:00;1.90;;;1.00;;
72388;SDS011;60566;48.062;9.930;2023-04-25T10:46:27;1.55;;;1.00;;
72388;SDS011;60566;48.062;9.930;2023-04-25T10:48:54;3.88;;;1.27;;
72388;SDS011;60566;48.062;9.930;2023-04-25T10:51:21;2.08;;;1.33;;
72388;SDS011;60566;48.062;9.930;2023-04-25T10:53:48;2.63;;;1.55;;
72388;SDS011;60566;48.062;9.930;2023-04-25T10:56:22;2.95;;;1.50;;
72388;SDS011;60566;48.062;9.930;2023-04-25T10:58:48;2.10;;;1.20;;
72388;SDS011;60566;48.062;9.930;2023-04-25T11:01:20;1.45;;;1.02;;
72388;SDS011;60566;48.062;9.930;2023-04-25T11:03:46;1.83;;;1.02;;
72388;SDS011;60566;48.062;9.930;2023-04-25T11:06:15;2.03;;;1.13;;
72388;SDS011;60566;48.062;9.930;2023-04-25T11:08:47;2.72;;;1.40;;
72388;SDS011;60566;48.062;9.930;2023-04-25T11:11:13;2.20;;;1.30;;
72388;SDS011;60566;48.062;9.930;2023-04-25T11:13:39;2.35;;;1.27;;
72388;SDS011;60566;48.062;9.930;2023-04-25T11:16:06;2.67;;;1.40;;
72388;SDS011;60566;48.062;9.930;2023-04-25T11:18:33;3.92;;;1.95;;
72388;SDS011;60566;48.062;9.930;2023-04-25T11:20:59;3.97;;;1.90;;
72388;SDS011;60566;48.062;9.930;2023-04-25T11:23:24;2.72;;;1.33;;
72388;SDS011;60566;48.062;9.930;2023-04-25T11:25:49;4.85;;;1.83;;
72388;SDS011;60566;48.062;9.930;2023-04-25T11:28:20;3.22;;;1.45;;
72388;SDS011;60566;48.062;9.930;2023-04-25T11:30:47;3.75;;;1.73;;
72388;SDS011;60566;48.062;9.930;2023-04-25T11:33:13;3.03;;;1.42;;
72388;SDS011;60566;48.062;9.930;2023-04-25T11:35:41;5.82;;;2.13;;
72388;SDS011;60566;48.062;9.930;2023-04-25T11:38:06;3.88;;;1.55;;
72388;SDS011;60566;48.062;9.930;2023-04-25T11:40:32;3.97;;;1.75;;
72388;SDS011;60566;48.062;9.930;2023-04-25T11:42:59;3.78;;;1.85;;
72388;SDS011;60566;48.062;9.930;2023-04-25T11:45:25;3.38;;;1.65;;
72388;SDS011;60566;48.062;9.930;2023-04-25T11:47:50;4.43;;;1.70;;
72388;SDS011;60566;48.062;9.930;2023-04-25T11:50:16;4.55;;;1.90;;
72388;SDS011;60566;48.062;9.930;2023-04-25T11:52:43;3.28;;;1.75;;
72388;SDS011;60566;48.062;9.930;2023-04-25T11:55:10;3.58;;;2.30;;
72388;SDS011;60566;48.062;9.930;2023-04-25T12:00:08;3.40;;;1.52;;
72388;SDS011;60566;48.062;9.930;2023-04-25T12:02:35;4.47;;;2.00;;
72388;SDS011;60566;48.062;9.930;2023-04-25T12:05:00;3.10;;;1.85;;
72388;SDS011;60566;48.062;9.930;2023-04-25T12:07:27;3.97;;;1.73;;
72388;SDS011;60566;48.062;9.930;2023-04-25T12:09:55;4.05;;;1.73;;
72388;SDS011;60566;48.062;9.930;2023-04-25T12:12:20;3.25;;;1.65;;
72388;SDS011;60566;48.062;9.930;2023-04-25T12:14:46;4.38;;;2.05;;
72388;SDS011;60566;48.062;9.930;2023-04-25T12:17:12;3.60;;;2.03;;
72388;SDS011;60566;48.062;9.930;2023-04-25T12:19:38;2.55;;;1.30;;
72388;SDS011;60566;48.062;9.930;2023-04-25T12:22:07;2.10;;;0.95;;
72388;SDS011;60566;48.062;9.930;2023-04-25T12:24:44;8.27;;;2.92;;
72388;SDS011;60566;48.062;9.930;2023-04-25T12:27:13;2.22;;;1.30;;
72388;SDS011;60566;48.062;9.930;2023-04-25T12:29:39;3.67;;;2.40;;
72388;SDS011;60566;48.062;9.930;2023-04-25T12:32:05;10.73;;;2.65;;
72388;SDS011;60566;48.062;9.930;2023-04-25T12:34:31;16.48;;;3.40;;
72388;SDS011;60566;48.062;9.930;2023-04-25T12:36:57;6.70;;;2.13;;
72388;SDS011;60566;48.062;9.930;2023-04-25T12:39:23;3.95;;;1.73;;
72388;SDS011;60566;48.062;9.930;2023-04-25T12:41:49;2.15;;;1.27;;
72388;SDS011;60566;48.062;9.930;2023-04-25T12:44:16;1.30;;;0.85;;
72388;SDS011;60566;48.062;9.930;2023-04-25T12:46:42;2.08;;;1.10;;
72388;SDS011;60566;48.062;9.930;2023-04-25T12:49:07;1.80;;;0.88;;
72388;SDS011;60566;48.062;9.930;2023-04-25T12:51:33;2.42;;;1.40;;
72388;SDS011;60566;48.062;9.930;2023-04-25T12:53:58;3.13;;;1.50;;
72388;SDS011;60566;48.062;9.930;2023-04-25T12:56:24;2.53;;;1.67;;
72388;SDS011;60566;48.062;9.930;2023-04-25T12:58:49;4.20;;;1.30;;
72388;SDS011;60566;48.062;9.930;2023-04-25T13:01:16;2.03;;;1.30;;
72388;SDS011;60566;48.062;9.930;2023-04-25T13:03:41;2.88;;;1.63;;
72388;SDS011;60566;48.062;9.930;2023-04-25T13:06:07;2.08;;;0.88;;
72388;SDS011;60566;48.062;9.930;2023-04-25T13:08:32;3.75;;;1.35;;
72388;SDS011;60566;48.062;9.930;2023-04-25T13:10:58;2.88;;;0.80;;
72388;SDS011;60566;48.062;9.930;2023-04-25T13:13:23;2.25;;;1.08;;
72388;SDS011;60566;48.062;9.930;2023-04-25T13:15:48;3.40;;;1.40;;
72388;SDS011;60566;48.062;9.930;2023-04-25T13:18:15;2.05;;;0.82;;
72388;SDS011;60566;48.062;9.930;2023-04-25T13:20:41;3.30;;;1.38;;
72388;SDS011;60566;48.062;9.930;2023-04-25T13:23:06;6.20;;;1.40;;
72388;SDS011;60566;48.062;9.930;2023-04-25T13:25:31;1.40;;;0.80;;
72388;SDS011;60566;48.062;9.930;2023-04-25T13:27:57;3.40;;;1.30;;
72388;SDS011;60566;48.062;9.930;2023-04-25T13:30:22;2.40;;;1.20;;
72388;SDS011;60566;48.062;9.930;2023-04-25T13:32:47;3.38;;;1.13;;
72388;SDS011;60566;48.062;9.930;2023-04-25T13:35:14;1.90;;;1.20;;
72388;SDS011;60566;48.062;9.930;2023-04-25T13:37:42;2.50;;;1.25;;
72388;SDS011;60566;48.062;9.930;2023-04-25T13:40:08;1.70;;;0.90;;
72388;SDS011;60566;48.062;9.930;2023-04-25T13:42:34;2.60;;;1.13;;
72388;SDS011;60566;48.062;9.930;2023-04-25T13:45:00;1.52;;;0.98;;
72388;SDS011;60566;48.062;9.930;2023-04-25T13:47:26;1.85;;;0.95;;
72388;SDS011;60566;48.062;9.930;2023-04-25T13:49:51;3.92;;;1.60;;
72388;SDS011;60566;48.062;9.930;2023-04-25T13:52:18;3.47;;;1.50;;
72388;SDS011;60566;48.062;9.930;2023-04-25T13:54:44;2.33;;;1.35;;
72388;SDS011;60566;48.062;9.930;2023-04-25T13:57:09;1.38;;;0.80;;
72388;SDS011;60566;48.062;9.930;2023-04-25T13:59:35;1.17;;;1.05;;
72388;SDS011;60566;48.062;9.930;2023-04-25T14:02:00;2.13;;;1.02;;
72388;SDS011;60566;48.062;9.930;2023-04-25T14:04:25;2.10;;;0.82;;
72388;SDS011;60566;48.062;9.930;2023-04-25T14:06:51;1.08;;;0.77;;
72388;SDS011;60566;48.062;9.930;2023-04-25T14:09:18;3.63;;;1.05;;
72388;SDS011;60566;48.062;9.930;2023-04-25T14:11:44;1.20;;;0.75;;
72388;SDS011;60566;48.062;9.930;2023-04-25T14:14:09;2.42;;;1.00;;
72388;SDS011;60566;48.062;9.930;2023-04-25T14:16:34;1.52;;;0.93;;
72388;SDS011;60566;48.062;9.930;2023-04-25T14:19:00;1.10;;;0.75;;
72388;SDS011;60566;48.062;9.930;2023-04-25T14:21:25;1.73;;;1.15;;
72388;SDS011;60566;48.062;9.930;2023-04-25T14:23:51;1.98;;;0.95;;
72388;SDS011;60566;48.062;9.930;2023-04-25T14:26:18;5.88;;;2.80;;
72388;SDS011;60566;48.062;9.930;2023-04-25T14:28:43;7.65;;;1.00;;
72388;SDS011;60566;48.062;9.930;2023-04-25T14:31:08;1.63;;;1.02;;
72388;SDS011;60566;48.062;9.930;2023-04-25T14:33:34;1.65;;;0.82;;
72388;SDS011;60566;48.062;9.930;2023-04-25T14:35:59;1.25;;;0.70;;
72388;SDS011;60566;48.062;9.930;2023-04-25T14:38:25;1.55;;;1.02;;
72388;SDS011;60566;48.062;9.930;2023-04-25T14:40:50;2.53;;;1.33;;
72388;SDS011;60566;48.062;9.930;2023-04-25T14:43:18;2.20;;;1.00;;